createdAt,value
2023-01-13T00:01:56.000Z,1.10
2023-01-13T00:06:58.572Z,1.60
2023-01-13T00:12:01.299Z,0.50
2023-01-13T00:17:04.662Z,0.60
2023-01-13T00:22:07.461Z,1.00
2023-01-13T00:27:10.088Z,0.80
2023-01-13T00:32:13.097Z,0.50
2023-01-13T00:37:15.741Z,0.70
2023-01-13T00:42:37.894Z,0.40
2023-01-13T00:47:40.727Z,0.80
2023-01-13T00:52:43.305Z,0.60
2023-01-13T00:57:45.968Z,0.90
2023-01-13T01:02:48.666Z,0.80
2023-01-13T01:07:51.720Z,0.80
2023-01-13T01:12:54.451Z,0.80
2023-01-13T01:17:57.118Z,2.40
2023-01-13T01:22:59.791Z,1.50
2023-01-13T01:28:02.855Z,0.70
2023-01-13T01:33:05.744Z,0.50
2023-01-13T01:38:08.699Z,2.20
2023-01-13T01:43:38.682Z,0.50
2023-01-13T01:48:42.995Z,1.20
2023-01-13T01:53:48.096Z,1.20
2023-01-13T01:58:54.062Z,1.10
2023-01-13T02:04:02.639Z,1.20
2023-01-13T02:09:05.485Z,1.20
2023-01-13T02:14:08.380Z,1.30
2023-01-13T02:19:48.561Z,0.90
2023-01-13T02:25:21.140Z,1.00
2023-01-13T02:31:00.555Z,0.70
2023-01-13T02:36:48.225Z,0.80
2023-01-13T02:42:43.197Z,0.50
2023-01-13T02:47:50.327Z,0.30
2023-01-13T02:52:58.590Z,0.70
2023-01-13T02:58:03.464Z,0.80
2023-01-13T03:03:05.974Z,0.60
2023-01-13T03:08:34.467Z,0.50
2023-01-13T03:14:02.121Z,0.60
2023-01-13T03:19:15.212Z,0.40
2023-01-13T03:24:28.282Z,0.40
2023-01-13T03:29:37.007Z,0.40
2023-01-13T03:34:50.375Z,0.40
2023-01-13T03:40:00.385Z,0.40
2023-01-13T03:45:12.913Z,1.00
2023-01-13T03:50:22.600Z,1.90
2023-01-13T03:55:31.751Z,0.60
2023-01-13T04:00:42.976Z,0.50
2023-01-13T04:05:51.470Z,0.60
2023-01-13T04:11:26.697Z,0.50
2023-01-13T04:16:29.440Z,2.30
2023-01-13T04:21:33.519Z,2.60
2023-01-13T04:26:36.084Z,1.60
2023-01-13T04:31:38.812Z,0.80
2023-01-13T04:36:41.332Z,1.30
2023-01-13T04:41:59.333Z,1.20
2023-01-13T04:47:03.097Z,1.00
2023-01-13T04:52:07.287Z,0.50
2023-01-13T04:57:10.120Z,1.20
2023-01-13T05:02:19.812Z,1.20
2023-01-13T05:07:22.568Z,1.10
2023-01-13T05:12:43.916Z,2.10
2023-01-13T05:17:46.692Z,0.30
2023-01-13T05:23:08.216Z,0.60
2023-01-13T05:28:10.766Z,0.80
2023-01-13T05:33:15.804Z,0.60
2023-01-13T05:38:18.721Z,0.70
2023-01-13T05:43:22.450Z,0.80
2023-01-13T05:48:37.296Z,2.70
2023-01-13T05:53:40.985Z,2.20
2023-01-13T05:58:44.751Z,1.00
2023-01-13T06:03:47.763Z,2.40
2023-01-13T06:08:50.434Z,2.60
2023-01-13T06:13:53.274Z,4.80
2023-01-13T06:18:55.993Z,3.70
2023-01-13T06:23:59.116Z,6.50
2023-01-13T06:29:01.856Z,4.80
2023-01-13T06:34:12.560Z,1.60
2023-01-13T06:39:19.219Z,2.90
2023-01-13T06:44:23.986Z,4.20
2023-01-13T06:49:26.568Z,5.60
2023-01-13T06:54:29.180Z,5.10
2023-01-13T06:59:34.441Z,3.50
2023-01-13T07:04:37.094Z,3.10
2023-01-13T07:09:40.042Z,4.20
2023-01-13T07:15:01.173Z,3.00
2023-01-13T07:20:04.183Z,2.00
2023-01-13T07:25:07.594Z,2.00
2023-01-13T07:30:10.939Z,2.50
2023-01-13T07:35:13.603Z,3.00
2023-01-13T07:40:16.529Z,1.30
2023-01-13T07:45:19.160Z,1.50
2023-01-13T07:50:23.695Z,1.20
2023-01-13T07:55:26.409Z,1.40
2023-01-13T08:00:29.311Z,2.60
2023-01-13T08:05:32.317Z,1.10
2023-01-13T08:10:34.825Z,2.60
2023-01-13T08:15:37.632Z,1.00
2023-01-13T08:20:40.937Z,2.40
2023-01-13T08:25:43.570Z,2.70
2023-01-13T08:30:46.279Z,2.00
2023-01-13T08:35:49.156Z,1.70
2023-01-13T08:40:51.978Z,1.60
2023-01-13T08:46:04.381Z,1.70
2023-01-13T08:51:09.202Z,3.10
2023-01-13T08:56:13.194Z,2.40
2023-01-13T09:01:21.504Z,1.40
2023-01-13T09:06:24.198Z,2.20
2023-01-13T09:11:50.872Z,4.80
2023-01-13T09:16:53.392Z,1.40
2023-01-13T09:21:57.461Z,4.40
2023-01-13T09:26:59.993Z,1.70
2023-01-13T09:32:02.691Z,3.00
2023-01-13T09:37:07.261Z,1.80
2023-01-13T09:43:02.494Z,3.10
2023-01-13T09:48:13.396Z,2.70
2023-01-13T09:53:42.680Z,4.20
2023-01-13T09:58:47.964Z,3.40
2023-01-13T10:03:50.799Z,2.70
2023-01-13T10:08:53.517Z,2.00
2023-01-13T10:13:59.741Z,2.70
2023-01-13T10:19:09.969Z,4.70
2023-01-13T10:24:25.934Z,1.80
2023-01-13T10:29:30.386Z,1.90
2023-01-13T10:34:47.698Z,1.60
2023-01-13T10:39:55.089Z,1.60
2023-01-13T10:45:00.993Z,1.60
2023-01-13T10:50:08.639Z,2.50
2023-01-13T10:55:27.475Z,2.20
2023-01-13T11:00:32.852Z,2.00
2023-01-13T11:05:36.912Z,3.50
2023-01-13T11:10:47.102Z,1.80
2023-01-13T11:16:17.955Z,3.70
2023-01-13T11:21:30.600Z,2.10
2023-01-13T11:27:02.633Z,1.80
2023-01-13T11:32:13.187Z,2.10
2023-01-13T11:37:31.184Z,1.60
2023-01-13T11:42:43.754Z,2.50
2023-01-13T11:47:51.240Z,2.20
2023-01-13T11:53:15.787Z,2.60
2023-01-13T11:58:55.537Z,6.00
2023-01-13T12:04:20.907Z,3.50
2023-01-13T12:09:35.226Z,2.60
2023-01-13T12:15:08.990Z,3.80
2023-01-13T12:20:45.623Z,2.40
2023-01-13T12:25:54.740Z,6.10
2023-01-13T12:31:02.580Z,5.20
2023-01-13T12:36:28.095Z,3.40
2023-01-13T12:42:02.343Z,4.40
2023-01-13T12:47:33.283Z,5.20
2023-01-13T12:52:45.577Z,3.00
2023-01-13T12:58:06.348Z,2.90
2023-01-13T13:03:12.284Z,4.20
2023-01-13T13:08:24.740Z,3.30
2023-01-13T13:13:53.577Z,5.40
2023-01-13T13:19:34.663Z,6.80
2023-01-13T13:24:38.085Z,3.50
2023-01-13T13:30:11.670Z,5.20
2023-01-13T13:36:02.646Z,5.30
2023-01-13T13:41:32.447Z,4.20
2023-01-13T13:46:48.268Z,5.50
2023-01-13T13:52:03.730Z,6.20
2023-01-13T13:57:17.082Z,3.30
2023-01-13T14:02:24.939Z,3.40
2023-01-13T14:07:28.211Z,4.10
2023-01-13T14:12:38.300Z,6.00
2023-01-13T14:17:40.861Z,8.00
2023-01-13T14:22:48.996Z,2.50
2023-01-13T14:27:51.570Z,6.20
2023-01-13T14:32:55.965Z,5.80
2023-01-13T14:38:02.120Z,5.60
2023-01-13T14:43:14.483Z,5.20
2023-01-13T14:48:17.120Z,4.90
2023-01-13T14:53:36.841Z,9.30
2023-01-13T14:58:40.261Z,5.40
2023-01-13T15:03:43.091Z,4.40
2023-01-13T15:08:45.712Z,6.00
2023-01-13T15:13:56.766Z,8.60
2023-01-13T15:18:59.395Z,6.30
2023-01-13T15:24:01.980Z,5.40
2023-01-13T15:29:05.444Z,4.80
2023-01-13T15:34:07.985Z,4.60
2023-01-13T15:39:12.993Z,7.40
2023-01-13T15:44:35.853Z,5.50
2023-01-13T15:49:47.543Z,3.90
2023-01-13T15:54:54.297Z,4.80
2023-01-13T16:00:01.048Z,6.50
2023-01-13T16:05:05.175Z,3.30
2023-01-13T16:10:16.850Z,5.30
2023-01-13T16:15:22.787Z,3.90
2023-01-13T16:20:27.100Z,6.30
2023-01-13T16:25:29.716Z,5.60
2023-01-13T16:30:35.678Z,4.90
2023-01-13T16:36:08.746Z,5.20
2023-01-13T16:41:01.392Z,7.30
2023-01-13T16:46:17.193Z,6.00
2023-01-13T16:51:21.377Z,6.80
2023-01-13T16:56:35.197Z,4.30
2023-01-13T17:01:39.923Z,5.50
2023-01-13T17:06:50.942Z,5.60
2023-01-13T17:11:54.726Z,4.70
2023-01-13T17:17:00.454Z,4.00
2023-01-13T17:22:03.511Z,4.30
2023-01-13T17:27:07.326Z,4.10
2023-01-13T17:32:16.019Z,8.50
2023-01-13T17:37:20.183Z,3.50
2023-01-13T17:42:25.020Z,8.90
2023-01-13T17:47:27.609Z,7.30
2023-01-13T17:52:30.738Z,5.30
2023-01-13T17:57:35.526Z,6.50
2023-01-13T18:02:38.298Z,4.20
2023-01-13T18:07:41.183Z,5.60
2023-01-13T18:12:43.777Z,6.40
2023-01-13T18:17:47.344Z,4.80
2023-01-13T18:23:08.857Z,8.20
2023-01-13T18:28:11.431Z,4.10
2023-01-13T18:33:13.929Z,3.20
2023-01-13T18:38:23.833Z,4.40
2023-01-13T18:43:26.460Z,4.80
2023-01-13T18:48:31.249Z,3.50
2023-01-13T18:53:34.074Z,4.70
2023-01-13T18:58:39.787Z,4.80
2023-01-13T19:03:42.456Z,5.40
2023-01-13T19:08:45.367Z,7.30
2023-01-13T19:13:48.084Z,5.80
2023-01-13T19:18:50.669Z,7.70
2023-01-13T19:23:56.863Z,3.80
2023-01-13T19:28:59.421Z,5.60
2023-01-13T19:34:01.919Z,6.60
2023-01-13T19:39:04.962Z,3.70
2023-01-13T19:44:30.082Z,5.90
2023-01-13T19:49:33.388Z,7.10
2023-01-13T19:54:35.994Z,3.80
2023-01-13T19:59:41.105Z,4.40
2023-01-13T20:04:48.887Z,6.10
2023-01-13T20:09:52.594Z,5.40
2023-01-13T20:14:55.614Z,5.80
2023-01-13T20:19:59.202Z,5.90
2023-01-13T20:25:01.808Z,4.50
2023-01-13T20:30:05.790Z,4.00
2023-01-13T20:35:08.493Z,4.80
2023-01-13T20:40:14.900Z,3.50
2023-01-13T20:45:20.590Z,5.30
2023-01-13T20:50:23.482Z,5.10
2023-01-13T20:55:25.986Z,6.30
2023-01-13T21:00:29.240Z,5.20
2023-01-13T21:05:33.402Z,4.70
2023-01-13T21:10:36.138Z,4.70
2023-01-13T21:15:38.711Z,5.60
2023-01-13T21:20:41.358Z,7.70
2023-01-13T21:25:43.909Z,4.40
2023-01-13T21:30:47.878Z,4.40
2023-01-13T21:35:50.557Z,4.20
2023-01-13T21:41:01.183Z,4.90
2023-01-13T21:46:22.489Z,6.00
2023-01-13T21:51:25.078Z,5.30
2023-01-13T21:56:27.697Z,6.50
2023-01-13T22:01:30.337Z,4.50
2023-01-13T22:06:32.944Z,4.60
2023-01-13T22:11:35.577Z,5.60
2023-01-13T22:16:41.899Z,6.20
2023-01-13T22:21:44.653Z,5.00
2023-01-13T22:26:47.263Z,4.10
2023-01-13T22:31:49.961Z,4.60
2023-01-13T22:36:52.502Z,3.90
2023-01-13T22:41:55.164Z,6.00
2023-01-13T22:46:57.681Z,6.00
2023-01-13T22:52:00.283Z,6.10
2023-01-13T22:57:02.887Z,6.20
2023-01-13T23:02:05.621Z,3.60
2023-01-13T23:07:08.194Z,4.00
2023-01-13T23:12:10.736Z,4.10
2023-01-13T23:17:13.428Z,4.80
2023-01-13T23:22:16.060Z,5.50
2023-01-13T23:27:18.751Z,4.00
2023-01-13T23:32:21.418Z,4.10
2023-01-13T23:37:23.919Z,4.90
2023-01-13T23:42:26.514Z,5.80
2023-01-13T23:47:29.079Z,5.90
2023-01-13T23:52:31.983Z,4.60
2023-01-13T23:57:34.488Z,6.20
